sensor_id;sensor_type;location;lat;lon;timestamp;P1;durP1;ratioP1;P2;durP2;ratioP2
76795;SDS011;65745;50.278;18.192;2024-02-14T00:01:51;77.50;;;41.90;;
76795;SDS011;65745;50.278;18.192;2024-02-14T00:04:24;83.80;;;44.40;;
76795;SDS011;65745;50.278;18.192;2024-02-14T00:06:56;80.70;;;43.60;;
76795;SDS011;65745;50.278;18.192;2024-02-14T00:09:28;86.20;;;44.10;;
76795;SDS011;65745;50.278;18.192;2024-02-14T00:12:01;85.80;;;45.70;;
76795;SDS011;65745;50.278;18.192;2024-02-14T00:14:34;81.70;;;44.90;;
76795;SDS011;65745;50.278;18.192;2024-02-14T00:17:06;84.50;;;43.80;;
76795;SDS011;65745;50.278;18.192;2024-02-14T00:19:39;83.50;;;44.70;;
76795;SDS011;65745;50.278;18.192;2024-02-14T00:22:11;91.50;;;44.60;;
76795;SDS011;65745;50.278;18.192;2024-02-14T00:24:45;83.40;;;42.90;;
76795;SDS011;65745;50.278;18.192;2024-02-14T00:27:17;88.10;;;44.30;;
76795;SDS011;65745;50.278;18.192;2024-02-14T00:29:50;86.30;;;43.10;;
76795;SDS011;65745;50.278;18.192;2024-02-14T00:32:24;73.10;;;41.20;;
76795;SDS011;65745;50.278;18.192;2024-02-14T00:34:56;82.30;;;39.60;;
76795;SDS011;65745;50.278;18.192;2024-02-14T00:37:29;66.10;;;36.80;;
76795;SDS011;65745;50.278;18.192;2024-02-14T00:40:03;75.20;;;38.10;;
76795;SDS011;65745;50.278;18.192;2024-02-14T00:42:37;75.10;;;38.30;;
76795;SDS011;65745;50.278;18.192;2024-02-14T00:45:10;73.30;;;39.50;;
76795;SDS011;65745;50.278;18.192;2024-02-14T00:47:43;74.20;;;40.10;;
76795;SDS011;65745;50.278;18.192;2024-02-14T00:50:15;72.40;;;39.90;;
76795;SDS011;65745;50.278;18.192;2024-02-14T00:52:47;71.20;;;39.80;;
76795;SDS011;65745;50.278;18.192;2024-02-14T00:55:20;71.30;;;39.70;;
76795;SDS011;65745;50.278;18.192;2024-02-14T00:57:52;72.80;;;39.70;;
76795;SDS011;65745;50.278;18.192;2024-02-14T01:00:24;71.90;;;39.60;;
76795;SDS011;65745;50.278;18.192;2024-02-14T01:02:57;74.30;;;43.40;;
76795;SDS011;65745;50.278;18.192;2024-02-14T01:05:29;68.80;;;39.30;;
76795;SDS011;65745;50.278;18.192;2024-02-14T01:08:01;71.40;;;39.90;;
76795;SDS011;65745;50.278;18.192;2024-02-14T01:10:34;72.90;;;40.30;;
76795;SDS011;65745;50.278;18.192;2024-02-14T01:13:06;68.60;;;38.70;;
76795;SDS011;65745;50.278;18.192;2024-02-14T01:15:39;68.90;;;39.90;;
76795;SDS011;65745;50.278;18.192;2024-02-14T01:18:11;72.90;;;40.80;;
76795;SDS011;65745;50.278;18.192;2024-02-14T01:20:44;64.20;;;37.40;;
76795;SDS011;65745;50.278;18.192;2024-02-14T01:23:17;60.60;;;37.00;;
76795;SDS011;65745;50.278;18.192;2024-02-14T01:25:49;68.80;;;37.60;;
76795;SDS011;65745;50.278;18.192;2024-02-14T01:28:23;65.00;;;38.50;;
76795;SDS011;65745;50.278;18.192;2024-02-14T01:30:55;57.10;;;35.70;;
76795;SDS011;65745;50.278;18.192;2024-02-14T01:33:28;65.50;;;38.50;;
76795;SDS011;65745;50.278;18.192;2024-02-14T01:36:01;68.50;;;37.10;;
76795;SDS011;65745;50.278;18.192;2024-02-14T01:38:33;70.50;;;38.20;;
76795;SDS011;65745;50.278;18.192;2024-02-14T01:41:06;75.40;;;39.80;;
76795;SDS011;65745;50.278;18.192;2024-02-14T01:43:38;81.60;;;42.10;;
76795;SDS011;65745;50.278;18.192;2024-02-14T01:46:10;75.00;;;43.80;;
76795;SDS011;65745;50.278;18.192;2024-02-14T01:48:43;72.20;;;41.60;;
76795;SDS011;65745;50.278;18.192;2024-02-14T01:51:16;83.00;;;45.10;;
76795;SDS011;65745;50.278;18.192;2024-02-14T01:53:53;72.70;;;40.60;;
76795;SDS011;65745;50.278;18.192;2024-02-14T01:56:26;70.70;;;42.40;;
76795;SDS011;65745;50.278;18.192;2024-02-14T01:58:59;75.60;;;42.60;;
76795;SDS011;65745;50.278;18.192;2024-02-14T02:01:33;76.30;;;42.60;;
76795;SDS011;65745;50.278;18.192;2024-02-14T02:04:05;71.70;;;41.50;;
76795;SDS011;65745;50.278;18.192;2024-02-14T02:06:38;81.60;;;44.10;;
76795;SDS011;65745;50.278;18.192;2024-02-14T02:09:11;74.70;;;41.80;;
76795;SDS011;65745;50.278;18.192;2024-02-14T02:11:46;78.10;;;43.90;;
76795;SDS011;65745;50.278;18.192;2024-02-14T02:14:20;76.80;;;46.00;;
76795;SDS011;65745;50.278;18.192;2024-02-14T02:16:53;86.60;;;46.50;;
76795;SDS011;65745;50.278;18.192;2024-02-14T02:19:26;72.90;;;41.20;;
76795;SDS011;65745;50.278;18.192;2024-02-14T02:21:59;70.80;;;39.40;;
76795;SDS011;65745;50.278;18.192;2024-02-14T02:24:31;74.80;;;40.70;;
76795;SDS011;65745;50.278;18.192;2024-02-14T02:27:03;66.90;;;38.30;;
76795;SDS011;65745;50.278;18.192;2024-02-14T02:29:36;68.90;;;40.20;;
76795;SDS011;65745;50.278;18.192;2024-02-14T02:32:08;67.20;;;38.10;;
76795;SDS011;65745;50.278;18.192;2024-02-14T02:34:40;67.60;;;39.00;;
76795;SDS011;65745;50.278;18.192;2024-02-14T02:37:14;62.60;;;38.10;;
76795;SDS011;65745;50.278;18.192;2024-02-14T02:39:47;64.50;;;38.00;;
76795;SDS011;65745;50.278;18.192;2024-02-14T02:42:20;63.30;;;36.10;;
76795;SDS011;65745;50.278;18.192;2024-02-14T02:44:52;59.20;;;35.50;;
76795;SDS011;65745;50.278;18.192;2024-02-14T02:47:25;59.30;;;35.70;;
76795;SDS011;65745;50.278;18.192;2024-02-14T02:49:57;64.20;;;39.30;;
76795;SDS011;65745;50.278;18.192;2024-02-14T02:52:30;62.20;;;36.80;;
76795;SDS011;65745;50.278;18.192;2024-02-14T02:55:02;61.40;;;37.50;;
76795;SDS011;65745;50.278;18.192;2024-02-14T02:57:35;57.10;;;34.70;;
76795;SDS011;65745;50.278;18.192;2024-02-14T03:00:09;57.20;;;32.30;;
76795;SDS011;65745;50.278;18.192;2024-02-14T03:02:43;59.40;;;34.70;;
76795;SDS011;65745;50.278;18.192;2024-02-14T03:05:15;59.40;;;35.80;;
76795;SDS011;65745;50.278;18.192;2024-02-14T03:07:49;55.90;;;35.20;;
76795;SDS011;65745;50.278;18.192;2024-02-14T03:10:22;63.30;;;37.90;;
76795;SDS011;65745;50.278;18.192;2024-02-14T03:12:54;66.00;;;37.90;;
76795;SDS011;65745;50.278;18.192;2024-02-14T03:15:26;61.10;;;35.60;;
76795;SDS011;65745;50.278;18.192;2024-02-14T03:17:59;65.20;;;37.30;;
76795;SDS011;65745;50.278;18.192;2024-02-14T03:20:32;66.00;;;37.80;;
76795;SDS011;65745;50.278;18.192;2024-02-14T03:23:04;59.90;;;34.50;;
76795;SDS011;65745;50.278;18.192;2024-02-14T03:25:36;68.00;;;39.70;;
76795;SDS011;65745;50.278;18.192;2024-02-14T03:28:08;54.40;;;38.80;;
76795;SDS011;65745;50.278;18.192;2024-02-14T03:30:42;61.00;;;36.90;;
76795;SDS011;65745;50.278;18.192;2024-02-14T03:33:14;57.00;;;35.60;;
76795;SDS011;65745;50.278;18.192;2024-02-14T03:35:47;53.20;;;32.60;;
76795;SDS011;65745;50.278;18.192;2024-02-14T03:38:25;58.20;;;33.70;;
76795;SDS011;65745;50.278;18.192;2024-02-14T03:40:58;53.60;;;34.30;;
76795;SDS011;65745;50.278;18.192;2024-02-14T03:43:31;52.50;;;32.80;;
76795;SDS011;65745;50.278;18.192;2024-02-14T03:46:03;52.00;;;34.10;;
76795;SDS011;65745;50.278;18.192;2024-02-14T03:48:36;51.30;;;32.20;;
76795;SDS011;65745;50.278;18.192;2024-02-14T03:51:10;53.20;;;32.80;;
76795;SDS011;65745;50.278;18.192;2024-02-14T03:53:42;55.70;;;34.20;;
76795;SDS011;65745;50.278;18.192;2024-02-14T03:56:14;52.30;;;32.90;;
76795;SDS011;65745;50.278;18.192;2024-02-14T03:58:47;53.00;;;32.30;;
76795;SDS011;65745;50.278;18.192;2024-02-14T04:01:20;55.50;;;32.70;;
76795;SDS011;65745;50.278;18.192;2024-02-14T04:03:53;51.00;;;33.10;;
76795;SDS011;65745;50.278;18.192;2024-02-14T04:06:25;60.70;;;36.20;;
76795;SDS011;65745;50.278;18.192;2024-02-14T04:08:57;59.70;;;36.40;;
76795;SDS011;65745;50.278;18.192;2024-02-14T04:11:30;61.70;;;35.80;;
76795;SDS011;65745;50.278;18.192;2024-02-14T04:14:03;61.70;;;34.50;;
76795;SDS011;65745;50.278;18.192;2024-02-14T04:16:36;51.60;;;33.80;;
76795;SDS011;65745;50.278;18.192;2024-02-14T04:19:08;61.10;;;34.80;;
76795;SDS011;65745;50.278;18.192;2024-02-14T04:21:42;63.00;;;32.70;;
76795;SDS011;65745;50.278;18.192;2024-02-14T04:24:15;67.80;;;35.40;;
76795;SDS011;65745;50.278;18.192;2024-02-14T04:26:47;63.30;;;33.40;;
76795;SDS011;65745;50.278;18.192;2024-02-14T04:29:19;60.10;;;32.90;;
76795;SDS011;65745;50.278;18.192;2024-02-14T04:31:52;53.60;;;30.70;;
76795;SDS011;65745;50.278;18.192;2024-02-14T04:34:24;55.60;;;32.30;;
76795;SDS011;65745;50.278;18.192;2024-02-14T04:36:57;50.20;;;30.70;;
76795;SDS011;65745;50.278;18.192;2024-02-14T04:39:29;47.30;;;30.20;;
76795;SDS011;65745;50.278;18.192;2024-02-14T04:42:01;52.30;;;31.00;;
76795;SDS011;65745;50.278;18.192;2024-02-14T04:44:34;50.20;;;31.40;;
76795;SDS011;65745;50.278;18.192;2024-02-14T04:47:06;53.40;;;32.60;;
76795;SDS011;65745;50.278;18.192;2024-02-14T04:49:38;50.40;;;31.80;;
76795;SDS011;65745;50.278;18.192;2024-02-14T04:52:11;51.30;;;32.10;;
76795;SDS011;65745;50.278;18.192;2024-02-14T04:54:43;54.20;;;33.40;;
76795;SDS011;65745;50.278;18.192;2024-02-14T04:57:15;51.60;;;30.10;;
76795;SDS011;65745;50.278;18.192;2024-02-14T04:59:49;58.30;;;34.30;;
76795;SDS011;65745;50.278;18.192;2024-02-14T05:02:22;60.70;;;35.60;;
76795;SDS011;65745;50.278;18.192;2024-02-14T05:04:54;66.30;;;41.00;;
76795;SDS011;65745;50.278;18.192;2024-02-14T05:07:26;62.90;;;38.10;;
76795;SDS011;65745;50.278;18.192;2024-02-14T05:09:58;64.00;;;37.90;;
76795;SDS011;65745;50.278;18.192;2024-02-14T05:12:30;59.80;;;36.90;;
76795;SDS011;65745;50.278;18.192;2024-02-14T05:15:03;56.00;;;34.50;;
76795;SDS011;65745;50.278;18.192;2024-02-14T05:17:36;56.00;;;33.50;;
76795;SDS011;65745;50.278;18.192;2024-02-14T05:20:09;59.10;;;33.80;;
76795;SDS011;65745;50.278;18.192;2024-02-14T05:22:42;67.60;;;38.20;;
76795;SDS011;65745;50.278;18.192;2024-02-14T05:25:14;59.30;;;35.50;;
76795;SDS011;65745;50.278;18.192;2024-02-14T05:27:47;52.80;;;32.90;;
76795;SDS011;65745;50.278;18.192;2024-02-14T05:30:20;50.60;;;32.10;;
76795;SDS011;65745;50.278;18.192;2024-02-14T05:32:52;47.30;;;30.00;;
76795;SDS011;65745;50.278;18.192;2024-02-14T05:35:24;44.90;;;28.40;;
76795;SDS011;65745;50.278;18.192;2024-02-14T05:37:56;46.60;;;27.20;;
76795;SDS011;65745;50.278;18.192;2024-02-14T05:40:28;44.70;;;29.50;;
76795;SDS011;65745;50.278;18.192;2024-02-14T05:43:00;43.60;;;26.70;;
76795;SDS011;65745;50.278;18.192;2024-02-14T05:45:33;38.60;;;26.00;;
76795;SDS011;65745;50.278;18.192;2024-02-14T05:48:05;38.50;;;23.50;;
76795;SDS011;65745;50.278;18.192;2024-02-14T05:50:38;38.10;;;24.90;;
76795;SDS011;65745;50.278;18.192;2024-02-14T05:53:10;39.00;;;23.70;;
76795;SDS011;65745;50.278;18.192;2024-02-14T05:55:43;40.90;;;27.20;;
76795;SDS011;65745;50.278;18.192;2024-02-14T05:58:15;44.40;;;27.70;;
76795;SDS011;65745;50.278;18.192;2024-02-14T06:00:48;44.40;;;25.80;;
76795;SDS011;65745;50.278;18.192;2024-02-14T06:03:20;49.70;;;29.40;;
76795;SDS011;65745;50.278;18.192;2024-02-14T06:05:53;47.50;;;30.20;;
76795;SDS011;65745;50.278;18.192;2024-02-14T06:08:25;47.20;;;28.90;;
76795;SDS011;65745;50.278;18.192;2024-02-14T06:10:58;45.60;;;30.80;;
76795;SDS011;65745;50.278;18.192;2024-02-14T06:13:30;48.40;;;32.10;;
76795;SDS011;65745;50.278;18.192;2024-02-14T06:16:05;52.70;;;33.00;;
76795;SDS011;65745;50.278;18.192;2024-02-14T06:18:41;53.70;;;35.90;;
76795;SDS011;65745;50.278;18.192;2024-02-14T06:21:13;59.30;;;38.60;;
76795;SDS011;65745;50.278;18.192;2024-02-14T06:23:45;59.70;;;35.40;;
76795;SDS011;65745;50.278;18.192;2024-02-14T06:26:18;63.30;;;39.60;;
76795;SDS011;65745;50.278;18.192;2024-02-14T06:28:50;61.00;;;38.10;;
76795;SDS011;65745;50.278;18.192;2024-02-14T06:31:23;55.70;;;35.40;;
76795;SDS011;65745;50.278;18.192;2024-02-14T06:33:55;61.10;;;36.00;;
76795;SDS011;65745;50.278;18.192;2024-02-14T06:36:28;49.40;;;32.60;;
76795;SDS011;65745;50.278;18.192;2024-02-14T06:39:00;53.10;;;35.60;;
76795;SDS011;65745;50.278;18.192;2024-02-14T06:41:33;53.20;;;34.40;;
76795;SDS011;65745;50.278;18.192;2024-02-14T06:44:05;57.60;;;35.60;;
76795;SDS011;65745;50.278;18.192;2024-02-14T06:46:37;54.40;;;33.70;;
76795;SDS011;65745;50.278;18.192;2024-02-14T06:49:11;53.90;;;36.10;;
76795;SDS011;65745;50.278;18.192;2024-02-14T06:51:46;58.50;;;36.80;;
76795;SDS011;65745;50.278;18.192;2024-02-14T06:54:20;53.00;;;34.00;;
76795;SDS011;65745;50.278;18.192;2024-02-14T06:56:52;53.40;;;35.00;;
76795;SDS011;65745;50.278;18.192;2024-02-14T06:59:25;50.50;;;34.80;;
76795;SDS011;65745;50.278;18.192;2024-02-14T07:01:57;48.60;;;35.60;;
76795;SDS011;65745;50.278;18.192;2024-02-14T07:04:42;50.60;;;31.60;;
76795;SDS011;65745;50.278;18.192;2024-02-14T07:07:14;48.30;;;30.50;;
76795;SDS011;65745;50.278;18.192;2024-02-14T07:09:46;49.80;;;30.50;;
76795;SDS011;65745;50.278;18.192;2024-02-14T07:12:19;53.70;;;33.60;;
76795;SDS011;65745;50.278;18.192;2024-02-14T07:14:51;60.00;;;34.70;;
76795;SDS011;65745;50.278;18.192;2024-02-14T07:17:23;49.80;;;33.60;;
76795;SDS011;65745;50.278;18.192;2024-02-14T07:19:56;50.90;;;35.60;;
76795;SDS011;65745;50.278;18.192;2024-02-14T07:22:28;49.80;;;32.50;;
76795;SDS011;65745;50.278;18.192;2024-02-14T07:25:00;55.10;;;32.80;;
76795;SDS011;65745;50.278;18.192;2024-02-14T07:27:34;52.10;;;31.80;;
76795;SDS011;65745;50.278;18.192;2024-02-14T07:30:07;45.50;;;31.50;;
76795;SDS011;65745;50.278;18.192;2024-02-14T07:32:41;50.70;;;33.70;;
76795;SDS011;65745;50.278;18.192;2024-02-14T07:35:14;50.60;;;31.90;;
76795;SDS011;65745;50.278;18.192;2024-02-14T07:37:46;53.90;;;30.90;;
76795;SDS011;65745;50.278;18.192;2024-02-14T07:40:18;43.90;;;28.70;;
76795;SDS011;65745;50.278;18.192;2024-02-14T07:42:51;49.80;;;30.20;;
76795;SDS011;65745;50.278;18.192;2024-02-14T07:45:23;43.60;;;28.90;;
76795;SDS011;65745;50.278;18.192;2024-02-14T07:47:55;39.80;;;27.30;;
76795;SDS011;65745;50.278;18.192;2024-02-14T07:50:28;40.90;;;25.60;;
76795;SDS011;65745;50.278;18.192;2024-02-14T07:53:01;37.70;;;27.20;;
76795;SDS011;65745;50.278;18.192;2024-02-14T07:55:33;39.50;;;26.20;;
76795;SDS011;65745;50.278;18.192;2024-02-14T07:58:08;37.50;;;27.30;;
76795;SDS011;65745;50.278;18.192;2024-02-14T08:00:40;41.60;;;26.50;;
76795;SDS011;65745;50.278;18.192;2024-02-14T08:03:12;35.80;;;23.50;;
76795;SDS011;65745;50.278;18.192;2024-02-14T08:05:45;29.50;;;19.40;;
76795;SDS011;65745;50.278;18.192;2024-02-14T08:08:17;34.40;;;19.80;;
76795;SDS011;65745;50.278;18.192;2024-02-14T08:10:50;32.00;;;20.20;;
76795;SDS011;65745;50.278;18.192;2024-02-14T08:13:23;34.40;;;24.50;;
76795;SDS011;65745;50.278;18.192;2024-02-14T08:15:55;34.70;;;23.00;;
76795;SDS011;65745;50.278;18.192;2024-02-14T08:18:27;33.70;;;21.10;;
76795;SDS011;65745;50.278;18.192;2024-02-14T08:21:00;33.20;;;21.70;;
76795;SDS011;65745;50.278;18.192;2024-02-14T08:23:33;36.90;;;23.90;;
76795;SDS011;65745;50.278;18.192;2024-02-14T08:26:08;36.90;;;24.20;;
76795;SDS011;65745;50.278;18.192;2024-02-14T08:28:40;30.80;;;21.10;;
76795;SDS011;65745;50.278;18.192;2024-02-14T08:31:12;51.90;;;29.10;;
76795;SDS011;65745;50.278;18.192;2024-02-14T08:33:44;43.10;;;26.60;;
76795;SDS011;65745;50.278;18.192;2024-02-14T08:36:17;38.80;;;24.70;;
76795;SDS011;65745;50.278;18.192;2024-02-14T08:38:49;32.70;;;21.90;;
76795;SDS011;65745;50.278;18.192;2024-02-14T08:41:21;38.20;;;23.40;;
76795;SDS011;65745;50.278;18.192;2024-02-14T08:43:53;37.20;;;21.40;;
76795;SDS011;65745;50.278;18.192;2024-02-14T08:46:26;35.40;;;23.40;;
76795;SDS011;65745;50.278;18.192;2024-02-14T08:48:59;33.00;;;22.50;;
76795;SDS011;65745;50.278;18.192;2024-02-14T08:51:40;34.30;;;21.60;;
76795;SDS011;65745;50.278;18.192;2024-02-14T08:54:15;34.50;;;23.30;;
76795;SDS011;65745;50.278;18.192;2024-02-14T08:56:48;33.00;;;22.10;;
76795;SDS011;65745;50.278;18.192;2024-02-14T08:59:22;34.40;;;20.30;;
76795;SDS011;65745;50.278;18.192;2024-02-14T09:01:55;32.30;;;20.30;;
76795;SDS011;65745;50.278;18.192;2024-02-14T09:04:27;30.80;;;20.60;;
76795;SDS011;65745;50.278;18.192;2024-02-14T09:06:59;27.50;;;18.90;;
76795;SDS011;65745;50.278;18.192;2024-02-14T09:09:33;23.70;;;17.50;;
76795;SDS011;65745;50.278;18.192;2024-02-14T09:12:06;26.80;;;17.90;;
76795;SDS011;65745;50.278;18.192;2024-02-14T09:14:39;24.10;;;16.70;;
76795;SDS011;65745;50.278;18.192;2024-02-14T09:17:12;23.60;;;16.20;;
76795;SDS011;65745;50.278;18.192;2024-02-14T09:19:45;23.90;;;17.90;;
76795;SDS011;65745;50.278;18.192;2024-02-14T09:22:17;25.10;;;18.60;;
76795;SDS011;65745;50.278;18.192;2024-02-14T09:24:50;24.80;;;16.80;;
76795;SDS011;65745;50.278;18.192;2024-02-14T09:27:22;24.50;;;17.50;;
76795;SDS011;65745;50.278;18.192;2024-02-14T09:29:55;24.70;;;17.30;;
76795;SDS011;65745;50.278;18.192;2024-02-14T09:32:27;21.10;;;15.30;;
76795;SDS011;65745;50.278;18.192;2024-02-14T09:34:59;23.20;;;17.00;;
76795;SDS011;65745;50.278;18.192;2024-02-14T09:37:34;26.30;;;18.10;;
76795;SDS011;65745;50.278;18.192;2024-02-14T09:40:08;21.20;;;14.90;;
76795;SDS011;65745;50.278;18.192;2024-02-14T09:42:44;22.50;;;16.20;;
76795;SDS011;65745;50.278;18.192;2024-02-14T09:45:24;24.20;;;18.10;;
76795;SDS011;65745;50.278;18.192;2024-02-14T09:47:57;23.00;;;17.60;;
76795;SDS011;65745;50.278;18.192;2024-02-14T09:50:31;24.40;;;17.60;;
76795;SDS011;65745;50.278;18.192;2024-02-14T09:53:04;18.60;;;12.50;;
76795;SDS011;65745;50.278;18.192;2024-02-14T09:55:39;18.00;;;12.90;;
76795;SDS011;65745;50.278;18.192;2024-02-14T09:58:12;20.40;;;14.50;;
76795;SDS011;65745;50.278;18.192;2024-02-14T10:00:45;25.50;;;16.20;;
76795;SDS011;65745;50.278;18.192;2024-02-14T10:03:17;18.00;;;13.90;;
76795;SDS011;65745;50.278;18.192;2024-02-14T10:05:50;22.20;;;15.60;;
76795;SDS011;65745;50.278;18.192;2024-02-14T10:08:23;25.90;;;17.90;;
76795;SDS011;65745;50.278;18.192;2024-02-14T10:10:57;20.00;;;15.00;;
76795;SDS011;65745;50.278;18.192;2024-02-14T10:13:29;22.10;;;15.50;;
76795;SDS011;65745;50.278;18.192;2024-02-14T10:16:02;22.60;;;15.20;;
76795;SDS011;65745;50.278;18.192;2024-02-14T10:18:37;19.50;;;14.50;;
76795;SDS011;65745;50.278;18.192;2024-02-14T10:21:13;18.70;;;14.40;;
76795;SDS011;65745;50.278;18.192;2024-02-14T10:23:48;20.50;;;14.50;;
76795;SDS011;65745;50.278;18.192;2024-02-14T10:26:22;17.50;;;14.00;;
76795;SDS011;65745;50.278;18.192;2024-02-14T10:28:56;18.00;;;12.30;;
76795;SDS011;65745;50.278;18.192;2024-02-14T10:31:28;14.30;;;10.40;;
76795;SDS011;65745;50.278;18.192;2024-02-14T10:34:00;13.00;;;9.90;;
76795;SDS011;65745;50.278;18.192;2024-02-14T10:36:35;13.60;;;9.40;;
76795;SDS011;65745;50.278;18.192;2024-02-14T10:39:11;11.90;;;9.60;;
76795;SDS011;65745;50.278;18.192;2024-02-14T10:41:46;10.20;;;8.80;;
76795;SDS011;65745;50.278;18.192;2024-02-14T10:44:19;13.20;;;9.90;;
76795;SDS011;65745;50.278;18.192;2024-02-14T10:46:52;14.30;;;9.70;;
76795;SDS011;65745;50.278;18.192;2024-02-14T10:49:25;12.90;;;9.50;;
76795;SDS011;65745;50.278;18.192;2024-02-14T10:52:00;12.30;;;9.30;;
76795;SDS011;65745;50.278;18.192;2024-02-14T10:54:36;12.90;;;9.50;;
76795;SDS011;65745;50.278;18.192;2024-02-14T10:57:09;11.30;;;8.30;;
76795;SDS011;65745;50.278;18.192;2024-02-14T10:59:43;11.20;;;8.90;;
76795;SDS011;65745;50.278;18.192;2024-02-14T11:02:17;13.70;;;9.60;;
76795;SDS011;65745;50.278;18.192;2024-02-14T11:04:51;10.30;;;8.20;;
76795;SDS011;65745;50.278;18.192;2024-02-14T11:07:24;10.50;;;7.80;;
76795;SDS011;65745;50.278;18.192;2024-02-14T11:10:05;8.20;;;6.20;;
76795;SDS011;65745;50.278;18.192;2024-02-14T11:12:38;9.20;;;6.50;;
76795;SDS011;65745;50.278;18.192;2024-02-14T11:15:12;6.30;;;5.40;;
76795;SDS011;65745;50.278;18.192;2024-02-14T11:17:47;8.20;;;6.10;;
76795;SDS011;65745;50.278;18.192;2024-02-14T11:20:30;9.50;;;5.80;;
76795;SDS011;65745;50.278;18.192;2024-02-14T11:23:06;9.10;;;6.90;;
76795;SDS011;65745;50.278;18.192;2024-02-14T11:25:40;10.20;;;6.50;;
76795;SDS011;65745;50.278;18.192;2024-02-14T11:28:17;7.30;;;6.20;;
76795;SDS011;65745;50.278;18.192;2024-02-14T11:30:50;8.90;;;5.50;;
76795;SDS011;65745;50.278;18.192;2024-02-14T11:33:24;8.10;;;5.80;;
76795;SDS011;65745;50.278;18.192;2024-02-14T11:35:56;6.30;;;5.00;;
76795;SDS011;65745;50.278;18.192;2024-02-14T11:38:33;8.00;;;5.50;;
76795;SDS011;65745;50.278;18.192;2024-02-14T11:41:06;8.20;;;6.50;;
76795;SDS011;65745;50.278;18.192;2024-02-14T11:43:50;9.60;;;7.10;;
76795;SDS011;65745;50.278;18.192;2024-02-14T11:46:24;9.70;;;6.30;;
76795;SDS011;65745;50.278;18.192;2024-02-14T11:48:58;6.00;;;4.90;;
76795;SDS011;65745;50.278;18.192;2024-02-14T11:51:32;7.30;;;5.10;;
76795;SDS011;65745;50.278;18.192;2024-02-14T11:54:06;6.90;;;5.70;;
76795;SDS011;65745;50.278;18.192;2024-02-14T11:56:39;7.70;;;5.20;;
76795;SDS011;65745;50.278;18.192;2024-02-14T11:59:12;7.80;;;5.90;;
76795;SDS011;65745;50.278;18.192;2024-02-14T12:01:46;6.60;;;4.90;;
76795;SDS011;65745;50.278;18.192;2024-02-14T12:04:20;6.80;;;6.10;;
76795;SDS011;65745;50.278;18.192;2024-02-14T12:06:53;7.50;;;5.90;;
76795;SDS011;65745;50.278;18.192;2024-02-14T12:09:26;7.60;;;5.30;;
76795;SDS011;65745;50.278;18.192;2024-02-14T12:11:59;6.50;;;5.50;;
76795;SDS011;65745;50.278;18.192;2024-02-14T12:14:31;7.70;;;5.60;;
76795;SDS011;65745;50.278;18.192;2024-02-14T12:17:04;7.00;;;4.50;;
76795;SDS011;65745;50.278;18.192;2024-02-14T12:19:37;6.80;;;5.70;;
76795;SDS011;65745;50.278;18.192;2024-02-14T12:22:10;6.30;;;5.30;;
76795;SDS011;65745;50.278;18.192;2024-02-14T12:24:47;8.00;;;5.90;;
76795;SDS011;65745;50.278;18.192;2024-02-14T12:27:21;5.80;;;4.40;;
76795;SDS011;65745;50.278;18.192;2024-02-14T12:29:53;5.40;;;4.20;;
76795;SDS011;65745;50.278;18.192;2024-02-14T12:32:26;6.30;;;5.10;;
76795;SDS011;65745;50.278;18.192;2024-02-14T12:34:58;5.40;;;3.60;;
76795;SDS011;65745;50.278;18.192;2024-02-14T12:37:30;6.10;;;4.50;;
76795;SDS011;65745;50.278;18.192;2024-02-14T12:40:02;5.80;;;4.40;;
76795;SDS011;65745;50.278;18.192;2024-02-14T12:42:36;6.30;;;4.30;;
76795;SDS011;65745;50.278;18.192;2024-02-14T12:45:09;5.30;;;4.60;;
76795;SDS011;65745;50.278;18.192;2024-02-14T12:47:44;5.70;;;4.40;;
76795;SDS011;65745;50.278;18.192;2024-02-14T12:50:16;5.30;;;4.00;;
76795;SDS011;65745;50.278;18.192;2024-02-14T12:52:49;5.80;;;4.20;;
76795;SDS011;65745;50.278;18.192;2024-02-14T12:55:22;6.40;;;3.60;;
76795;SDS011;65745;50.278;18.192;2024-02-14T12:57:55;5.00;;;3.90;;
76795;SDS011;65745;50.278;18.192;2024-02-14T13:00:27;4.60;;;3.60;;
76795;SDS011;65745;50.278;18.192;2024-02-14T13:03:01;5.20;;;3.80;;
76795;SDS011;65745;50.278;18.192;2024-02-14T13:05:34;5.10;;;3.60;;
76795;SDS011;65745;50.278;18.192;2024-02-14T13:08:07;5.80;;;3.70;;
76795;SDS011;65745;50.278;18.192;2024-02-14T13:10:40;7.30;;;3.90;;
76795;SDS011;65745;50.278;18.192;2024-02-14T13:13:14;5.20;;;3.60;;
76795;SDS011;65745;50.278;18.192;2024-02-14T13:15:46;6.50;;;4.50;;
76795;SDS011;65745;50.278;18.192;2024-02-14T13:18:18;6.30;;;4.20;;
76795;SDS011;65745;50.278;18.192;2024-02-14T13:20:51;5.20;;;4.20;;
76795;SDS011;65745;50.278;18.192;2024-02-14T13:23:29;5.60;;;3.80;;
76795;SDS011;65745;50.278;18.192;2024-02-14T13:26:02;6.10;;;3.80;;
76795;SDS011;65745;50.278;18.192;2024-02-14T13:28:34;5.20;;;3.30;;
76795;SDS011;65745;50.278;18.192;2024-02-14T13:31:06;6.90;;;4.10;;
76795;SDS011;65745;50.278;18.192;2024-02-14T13:33:39;5.70;;;3.90;;
76795;SDS011;65745;50.278;18.192;2024-02-14T13:36:12;5.00;;;3.90;;
76795;SDS011;65745;50.278;18.192;2024-02-14T13:38:46;5.60;;;4.10;;
76795;SDS011;65745;50.278;18.192;2024-02-14T13:41:18;6.70;;;4.30;;
76795;SDS011;65745;50.278;18.192;2024-02-14T13:43:50;4.20;;;3.60;;
76795;SDS011;65745;50.278;18.192;2024-02-14T13:46:23;7.80;;;4.20;;
76795;SDS011;65745;50.278;18.192;2024-02-14T13:48:55;5.80;;;3.40;;
76795;SDS011;65745;50.278;18.192;2024-02-14T13:51:28;6.20;;;4.20;;
76795;SDS011;65745;50.278;18.192;2024-02-14T13:54:01;6.60;;;4.40;;
76795;SDS011;65745;50.278;18.192;2024-02-14T13:56:34;5.80;;;4.10;;
76795;SDS011;65745;50.278;18.192;2024-02-14T13:59:06;6.10;;;4.20;;
76795;SDS011;65745;50.278;18.192;2024-02-14T14:01:38;5.40;;;4.00;;
76795;SDS011;65745;50.278;18.192;2024-02-14T14:04:11;5.70;;;4.30;;
76795;SDS011;65745;50.278;18.192;2024-02-14T14:06:43;6.30;;;4.30;;
76795;SDS011;65745;50.278;18.192;2024-02-14T14:09:17;5.50;;;3.90;;
76795;SDS011;65745;50.278;18.192;2024-02-14T14:11:49;4.80;;;3.70;;
76795;SDS011;65745;50.278;18.192;2024-02-14T14:14:22;6.10;;;4.00;;
76795;SDS011;65745;50.278;18.192;2024-02-14T14:16:56;5.30;;;3.70;;
76795;SDS011;65745;50.278;18.192;2024-02-14T14:19:28;6.20;;;3.90;;
76795;SDS011;65745;50.278;18.192;2024-02-14T14:22:01;7.00;;;4.40;;
76795;SDS011;65745;50.278;18.192;2024-02-14T14:24:33;6.40;;;4.40;;
76795;SDS011;65745;50.278;18.192;2024-02-14T14:27:06;6.00;;;4.50;;
76795;SDS011;65745;50.278;18.192;2024-02-14T14:29:43;5.90;;;4.40;;
76795;SDS011;65745;50.278;18.192;2024-02-14T14:32:15;11.20;;;5.30;;
76795;SDS011;65745;50.278;18.192;2024-02-14T14:34:47;6.50;;;3.80;;
76795;SDS011;65745;50.278;18.192;2024-02-14T14:37:20;5.70;;;3.70;;
76795;SDS011;65745;50.278;18.192;2024-02-14T14:39:53;8.80;;;5.50;;
76795;SDS011;65745;50.278;18.192;2024-02-14T14:42:26;5.90;;;4.40;;
76795;SDS011;65745;50.278;18.192;2024-02-14T14:44:58;7.60;;;4.10;;
76795;SDS011;65745;50.278;18.192;2024-02-14T14:47:32;8.90;;;4.80;;
76795;SDS011;65745;50.278;18.192;2024-02-14T14:50:06;5.40;;;3.80;;